Terminal Aerodrome Forecast
Issued by NWS Upton, NY

Home | Current Version | Previous Version | Text Only | Print | Product List | Glossary On
Versions: 1 2 3 4 5 6 7 8 9 10 11 12 13 14 15 16 17 18 19 20 21 22 23 24 25 26 27 28 29 30 31 32 33 34 35
000
FTUS41 KOKX 241524 AAD
TAFISP
TAF AMD
KISP 241524Z 2415/2512 17010KT P6SM BKN250
     FM242300 12009KT P6SM BKN250
     FM250300 11010KT 5SM -RA OVC012
     FM250500 10010KT 3SM RA OVC012
     FM250700 10011KT 3SM RA OVC006
     FM251000 11015G21KT 2SM RA BR OVC006=

USA.gov is the U.S. government's official web portal to all federal, state and local government web resources and services.